sensor_id;sensor_type;location;lat;lon;timestamp;P1;durP1;ratioP1;P2;durP2;ratioP2
42334;SDS011;27986;42.700;24.178;2022-10-16T00:00:42;2.60;;;1.58;;
42334;SDS011;27986;42.700;24.178;2022-10-16T00:03:08;4.50;;;1.60;;
42334;SDS011;27986;42.700;24.178;2022-10-16T00:05:38;4.60;;;2.20;;
42334;SDS011;27986;42.700;24.178;2022-10-16T00:08:08;4.72;;;2.15;;
42334;SDS011;27986;42.700;24.178;2022-10-16T00:10:36;5.85;;;2.72;;
42334;SDS011;27986;42.700;24.178;2022-10-16T00:13:02;8.68;;;1.85;;
42334;SDS011;27986;42.700;24.178;2022-10-16T00:15:28;3.08;;;1.55;;
42334;SDS011;27986;42.700;24.178;2022-10-16T00:17:54;2.80;;;1.45;;
42334;SDS011;27986;42.700;24.178;2022-10-16T00:20:19;4.13;;;2.35;;
42334;SDS011;27986;42.700;24.178;2022-10-16T00:22:45;3.92;;;2.28;;
42334;SDS011;27986;42.700;24.178;2022-10-16T00:25:10;3.72;;;2.13;;
42334;SDS011;27986;42.700;24.178;2022-10-16T00:27:36;5.55;;;2.08;;
42334;SDS011;27986;42.700;24.178;2022-10-16T00:30:02;5.15;;;2.08;;
42334;SDS011;27986;42.700;24.178;2022-10-16T00:32:28;5.00;;;1.85;;
42334;SDS011;27986;42.700;24.178;2022-10-16T00:34:54;4.05;;;1.92;;
42334;SDS011;27986;42.700;24.178;2022-10-16T00:37:20;3.17;;;1.65;;
42334;SDS011;27986;42.700;24.178;2022-10-16T00:39:45;6.88;;;2.50;;
42334;SDS011;27986;42.700;24.178;2022-10-16T00:42:14;3.15;;;1.63;;
42334;SDS011;27986;42.700;24.178;2022-10-16T00:49:53;5.68;;;2.60;;
42334;SDS011;27986;42.700;24.178;2022-10-16T00:52:23;5.65;;;2.17;;
42334;SDS011;27986;42.700;24.178;2022-10-16T00:54:49;4.93;;;2.33;;
42334;SDS011;27986;42.700;24.178;2022-10-16T00:57:15;4.47;;;1.85;;
42334;SDS011;27986;42.700;24.178;2022-10-16T00:59:41;3.78;;;1.77;;
42334;SDS011;27986;42.700;24.178;2022-10-16T01:02:10;3.70;;;1.80;;
42334;SDS011;27986;42.700;24.178;2022-10-16T01:04:42;2.70;;;1.60;;
42334;SDS011;27986;42.700;24.178;2022-10-16T01:10:17;3.85;;;1.67;;
42334;SDS011;27986;42.700;24.178;2022-10-16T01:12:50;3.35;;;1.83;;
42334;SDS011;27986;42.700;24.178;2022-10-16T01:15:37;3.50;;;1.33;;
42334;SDS011;27986;42.700;24.178;2022-10-16T01:18:17;4.82;;;2.40;;
42334;SDS011;27986;42.700;24.178;2022-10-16T01:20:54;3.67;;;2.30;;
42334;SDS011;27986;42.700;24.178;2022-10-16T01:31:47;8.57;;;2.05;;
42334;SDS011;27986;42.700;24.178;2022-10-16T01:34:18;2.72;;;1.67;;
42334;SDS011;27986;42.700;24.178;2022-10-16T01:36:53;2.72;;;1.65;;
42334;SDS011;27986;42.700;24.178;2022-10-16T01:39:26;3.20;;;1.70;;
42334;SDS011;27986;42.700;24.178;2022-10-16T01:42:01;3.60;;;1.73;;
42334;SDS011;27986;42.700;24.178;2022-10-16T01:44:40;3.85;;;1.90;;
42334;SDS011;27986;42.700;24.178;2022-10-16T01:47:08;3.13;;;1.48;;
42334;SDS011;27986;42.700;24.178;2022-10-16T01:49:36;2.30;;;1.20;;
42334;SDS011;27986;42.700;24.178;2022-10-16T01:52:09;3.88;;;1.88;;
42334;SDS011;27986;42.700;24.178;2022-10-16T01:54:40;3.03;;;1.70;;
42334;SDS011;27986;42.700;24.178;2022-10-16T01:57:08;3.60;;;1.33;;
42334;SDS011;27986;42.700;24.178;2022-10-16T01:59:38;4.97;;;2.33;;
42334;SDS011;27986;42.700;24.178;2022-10-16T02:02:09;3.17;;;1.80;;
42334;SDS011;27986;42.700;24.178;2022-10-16T02:04:41;2.22;;;1.38;;
42334;SDS011;27986;42.700;24.178;2022-10-16T02:07:10;8.38;;;1.85;;
42334;SDS011;27986;42.700;24.178;2022-10-16T02:09:36;3.35;;;1.88;;
42334;SDS011;27986;42.700;24.178;2022-10-16T02:12:06;4.72;;;2.22;;
42334;SDS011;27986;42.700;24.178;2022-10-16T02:14:53;3.78;;;1.50;;
42334;SDS011;27986;42.700;24.178;2022-10-16T02:17:19;2.63;;;1.17;;
42334;SDS011;27986;42.700;24.178;2022-10-16T02:19:46;2.60;;;1.63;;
42334;SDS011;27986;42.700;24.178;2022-10-16T02:22:27;3.70;;;1.77;;
42334;SDS011;27986;42.700;24.178;2022-10-16T02:24:58;2.58;;;1.13;;
42334;SDS011;27986;42.700;24.178;2022-10-16T02:29:52;3.78;;;1.80;;
42334;SDS011;27986;42.700;24.178;2022-10-16T02:32:24;3.22;;;1.73;;
42334;SDS011;27986;42.700;24.178;2022-10-16T02:34:53;5.97;;;2.15;;
42334;SDS011;27986;42.700;24.178;2022-10-16T02:37:19;3.28;;;1.75;;
42334;SDS011;27986;42.700;24.178;2022-10-16T02:39:45;3.08;;;1.83;;
42334;SDS011;27986;42.700;24.178;2022-10-16T02:42:14;3.08;;;1.45;;
42334;SDS011;27986;42.700;24.178;2022-10-16T02:44:40;4.20;;;1.30;;
42334;SDS011;27986;42.700;24.178;2022-10-16T02:47:05;1.85;;;1.05;;
42334;SDS011;27986;42.700;24.178;2022-10-16T02:49:31;3.78;;;1.70;;
42334;SDS011;27986;42.700;24.178;2022-10-16T02:51:56;3.70;;;1.73;;
42334;SDS011;27986;42.700;24.178;2022-10-16T02:54:22;5.85;;;1.58;;
42334;SDS011;27986;42.700;24.178;2022-10-16T02:56:48;3.80;;;1.67;;
42334;SDS011;27986;42.700;24.178;2022-10-16T02:59:14;7.78;;;1.45;;
42334;SDS011;27986;42.700;24.178;2022-10-16T03:01:39;3.30;;;1.42;;
42334;SDS011;27986;42.700;24.178;2022-10-16T03:04:05;2.42;;;0.90;;
42334;SDS011;27986;42.700;24.178;2022-10-16T03:06:30;2.78;;;1.63;;
42334;SDS011;27986;42.700;24.178;2022-10-16T03:08:56;4.75;;;1.55;;
42334;SDS011;27986;42.700;24.178;2022-10-16T03:11:21;3.00;;;1.58;;
42334;SDS011;27986;42.700;24.178;2022-10-16T03:13:46;6.38;;;1.63;;
42334;SDS011;27986;42.700;24.178;2022-10-16T03:16:12;2.55;;;1.38;;
42334;SDS011;27986;42.700;24.178;2022-10-16T03:18:37;4.95;;;1.65;;
42334;SDS011;27986;42.700;24.178;2022-10-16T03:21:03;2.65;;;1.65;;
42334;SDS011;27986;42.700;24.178;2022-10-16T03:23:28;2.00;;;1.02;;
42334;SDS011;27986;42.700;24.178;2022-10-16T03:25:54;3.08;;;1.48;;
42334;SDS011;27986;42.700;24.178;2022-10-16T03:28:19;3.10;;;1.58;;
42334;SDS011;27986;42.700;24.178;2022-10-16T03:30:45;4.25;;;2.20;;
42334;SDS011;27986;42.700;24.178;2022-10-16T03:33:10;4.88;;;2.05;;
42334;SDS011;27986;42.700;24.178;2022-10-16T03:35:36;6.45;;;2.05;;
42334;SDS011;27986;42.700;24.178;2022-10-16T03:38:01;7.70;;;2.97;;
42334;SDS011;27986;42.700;24.178;2022-10-16T03:40:26;4.20;;;2.35;;
42334;SDS011;27986;42.700;24.178;2022-10-16T03:42:52;8.35;;;4.07;;
42334;SDS011;27986;42.700;24.178;2022-10-16T03:45:20;14.15;;;7.65;;
42334;SDS011;27986;42.700;24.178;2022-10-16T03:47:45;12.07;;;7.15;;
42334;SDS011;27986;42.700;24.178;2022-10-16T03:50:11;8.80;;;5.10;;
42334;SDS011;27986;42.700;24.178;2022-10-16T03:52:36;7.55;;;3.65;;
42334;SDS011;27986;42.700;24.178;2022-10-16T03:55:02;4.15;;;1.83;;
42334;SDS011;27986;42.700;24.178;2022-10-16T03:57:27;3.33;;;1.77;;
42334;SDS011;27986;42.700;24.178;2022-10-16T03:59:54;11.40;;;5.03;;
42334;SDS011;27986;42.700;24.178;2022-10-16T04:02:20;14.05;;;6.00;;
42334;SDS011;27986;42.700;24.178;2022-10-16T04:04:45;10.93;;;4.63;;
42334;SDS011;27986;42.700;24.178;2022-10-16T04:07:11;11.25;;;4.13;;
42334;SDS011;27986;42.700;24.178;2022-10-16T04:09:36;13.07;;;4.47;;
42334;SDS011;27986;42.700;24.178;2022-10-16T04:12:01;7.57;;;3.13;;
42334;SDS011;27986;42.700;24.178;2022-10-16T04:14:27;9.18;;;3.35;;
42334;SDS011;27986;42.700;24.178;2022-10-16T04:16:52;9.88;;;4.60;;
42334;SDS011;27986;42.700;24.178;2022-10-16T04:19:18;14.90;;;4.97;;
42334;SDS011;27986;42.700;24.178;2022-10-16T04:21:43;21.98;;;6.75;;
42334;SDS011;27986;42.700;24.178;2022-10-16T04:24:09;10.23;;;3.95;;
42334;SDS011;27986;42.700;24.178;2022-10-16T04:26:36;6.85;;;2.50;;
42334;SDS011;27986;42.700;24.178;2022-10-16T04:29:02;5.28;;;2.05;;
42334;SDS011;27986;42.700;24.178;2022-10-16T04:31:27;3.63;;;1.40;;
42334;SDS011;27986;42.700;24.178;2022-10-16T04:33:53;3.22;;;1.83;;
42334;SDS011;27986;42.700;24.178;2022-10-16T04:36:18;4.15;;;2.50;;
42334;SDS011;27986;42.700;24.178;2022-10-16T04:38:43;3.50;;;1.65;;
42334;SDS011;27986;42.700;24.178;2022-10-16T04:41:09;5.22;;;2.60;;
42334;SDS011;27986;42.700;24.178;2022-10-16T04:43:34;4.38;;;2.65;;
42334;SDS011;27986;42.700;24.178;2022-10-16T04:46:00;5.22;;;2.33;;
42334;SDS011;27986;42.700;24.178;2022-10-16T04:48:26;14.23;;;3.45;;
42334;SDS011;27986;42.700;24.178;2022-10-16T04:50:52;7.38;;;3.30;;
42334;SDS011;27986;42.700;24.178;2022-10-16T04:53:17;12.10;;;3.60;;
42334;SDS011;27986;42.700;24.178;2022-10-16T04:55:43;5.93;;;3.05;;
42334;SDS011;27986;42.700;24.178;2022-10-16T04:58:09;6.63;;;3.42;;
42334;SDS011;27986;42.700;24.178;2022-10-16T05:00:35;4.90;;;2.67;;
42334;SDS011;27986;42.700;24.178;2022-10-16T05:03:00;6.38;;;2.42;;
42334;SDS011;27986;42.700;24.178;2022-10-16T05:05:26;6.88;;;2.85;;
42334;SDS011;27986;42.700;24.178;2022-10-16T05:07:52;4.93;;;2.38;;
42334;SDS011;27986;42.700;24.178;2022-10-16T05:10:18;16.17;;;2.58;;
42334;SDS011;27986;42.700;24.178;2022-10-16T05:12:44;6.13;;;3.25;;
42334;SDS011;27986;42.700;24.178;2022-10-16T05:15:10;11.05;;;4.25;;
42334;SDS011;27986;42.700;24.178;2022-10-16T05:17:36;10.88;;;4.40;;
42334;SDS011;27986;42.700;24.178;2022-10-16T05:20:02;10.40;;;5.30;;
42334;SDS011;27986;42.700;24.178;2022-10-16T05:22:28;5.82;;;3.25;;
42334;SDS011;27986;42.700;24.178;2022-10-16T05:24:53;16.45;;;6.97;;
42334;SDS011;27986;42.700;24.178;2022-10-16T05:27:19;13.88;;;5.82;;
42334;SDS011;27986;42.700;24.178;2022-10-16T05:29:45;24.92;;;3.90;;
42334;SDS011;27986;42.700;24.178;2022-10-16T05:32:12;8.75;;;4.53;;
42334;SDS011;27986;42.700;24.178;2022-10-16T05:34:38;7.68;;;4.07;;
42334;SDS011;27986;42.700;24.178;2022-10-16T05:37:03;8.15;;;4.82;;
42334;SDS011;27986;42.700;24.178;2022-10-16T05:39:28;7.57;;;3.75;;
42334;SDS011;27986;42.700;24.178;2022-10-16T05:41:54;4.45;;;2.67;;
42334;SDS011;27986;42.700;24.178;2022-10-16T05:44:19;8.93;;;4.32;;
42334;SDS011;27986;42.700;24.178;2022-10-16T05:46:46;11.20;;;5.70;;
42334;SDS011;27986;42.700;24.178;2022-10-16T05:49:11;11.70;;;4.53;;
42334;SDS011;27986;42.700;24.178;2022-10-16T05:51:37;4.60;;;2.50;;
42334;SDS011;27986;42.700;24.178;2022-10-16T05:54:02;8.82;;;3.67;;
42334;SDS011;27986;42.700;24.178;2022-10-16T05:56:28;6.20;;;3.88;;
42334;SDS011;27986;42.700;24.178;2022-10-16T05:58:53;7.93;;;3.65;;
42334;SDS011;27986;42.700;24.178;2022-10-16T06:01:19;7.57;;;4.45;;
42334;SDS011;27986;42.700;24.178;2022-10-16T06:03:46;8.10;;;3.78;;
42334;SDS011;27986;42.700;24.178;2022-10-16T06:06:15;21.05;;;8.43;;
42334;SDS011;27986;42.700;24.178;2022-10-16T06:08:43;11.48;;;5.90;;
42334;SDS011;27986;42.700;24.178;2022-10-16T06:11:11;8.90;;;4.05;;
42334;SDS011;27986;42.700;24.178;2022-10-16T06:13:38;10.10;;;3.67;;
42334;SDS011;27986;42.700;24.178;2022-10-16T06:16:06;7.40;;;4.05;;
42334;SDS011;27986;42.700;24.178;2022-10-16T06:18:32;7.47;;;3.92;;
42334;SDS011;27986;42.700;24.178;2022-10-16T06:20:58;11.13;;;5.15;;
42334;SDS011;27986;42.700;24.178;2022-10-16T06:23:24;7.97;;;4.68;;
42334;SDS011;27986;42.700;24.178;2022-10-16T06:25:50;6.85;;;2.85;;
42334;SDS011;27986;42.700;24.178;2022-10-16T06:28:16;9.00;;;4.60;;
42334;SDS011;27986;42.700;24.178;2022-10-16T06:30:42;8.52;;;5.13;;
42334;SDS011;27986;42.700;24.178;2022-10-16T06:33:10;6.25;;;4.32;;
42334;SDS011;27986;42.700;24.178;2022-10-16T06:35:36;8.02;;;4.22;;
42334;SDS011;27986;42.700;24.178;2022-10-16T06:38:02;16.95;;;6.68;;
42334;SDS011;27986;42.700;24.178;2022-10-16T06:40:27;17.23;;;4.10;;
42334;SDS011;27986;42.700;24.178;2022-10-16T06:42:56;4.03;;;1.90;;
42334;SDS011;27986;42.700;24.178;2022-10-16T06:45:21;3.53;;;1.65;;
42334;SDS011;27986;42.700;24.178;2022-10-16T06:47:47;7.70;;;2.83;;
42334;SDS011;27986;42.700;24.178;2022-10-16T06:50:12;5.38;;;2.63;;
42334;SDS011;27986;42.700;24.178;2022-10-16T06:52:38;7.63;;;3.58;;
42334;SDS011;27986;42.700;24.178;2022-10-16T06:55:04;6.78;;;3.05;;
42334;SDS011;27986;42.700;24.178;2022-10-16T06:57:30;5.50;;;2.42;;
42334;SDS011;27986;42.700;24.178;2022-10-16T06:59:56;4.93;;;2.33;;
42334;SDS011;27986;42.700;24.178;2022-10-16T07:02:21;4.78;;;2.45;;
42334;SDS011;27986;42.700;24.178;2022-10-16T07:04:47;4.38;;;2.20;;
42334;SDS011;27986;42.700;24.178;2022-10-16T07:07:12;3.80;;;1.63;;
42334;SDS011;27986;42.700;24.178;2022-10-16T07:09:38;5.40;;;1.77;;
42334;SDS011;27986;42.700;24.178;2022-10-16T07:12:03;4.53;;;1.50;;
42334;SDS011;27986;42.700;24.178;2022-10-16T07:14:29;3.75;;;2.08;;
42334;SDS011;27986;42.700;24.178;2022-10-16T07:16:55;3.38;;;2.00;;
42334;SDS011;27986;42.700;24.178;2022-10-16T07:19:20;6.50;;;1.50;;
42334;SDS011;27986;42.700;24.178;2022-10-16T07:21:46;4.88;;;2.00;;
42334;SDS011;27986;42.700;24.178;2022-10-16T07:24:12;4.38;;;1.67;;
42334;SDS011;27986;42.700;24.178;2022-10-16T07:26:40;4.85;;;2.13;;
42334;SDS011;27986;42.700;24.178;2022-10-16T07:29:07;3.67;;;1.45;;
42334;SDS011;27986;42.700;24.178;2022-10-16T07:31:37;3.15;;;1.63;;
42334;SDS011;27986;42.700;24.178;2022-10-16T07:34:03;3.45;;;1.77;;
42334;SDS011;27986;42.700;24.178;2022-10-16T07:36:28;3.22;;;1.42;;
42334;SDS011;27986;42.700;24.178;2022-10-16T07:38:54;2.63;;;1.40;;
42334;SDS011;27986;42.700;24.178;2022-10-16T07:41:20;3.33;;;1.80;;
42334;SDS011;27986;42.700;24.178;2022-10-16T07:43:50;2.90;;;1.45;;
42334;SDS011;27986;42.700;24.178;2022-10-16T07:46:17;3.70;;;1.50;;
42334;SDS011;27986;42.700;24.178;2022-10-16T07:48:44;5.38;;;1.77;;
42334;SDS011;27986;42.700;24.178;2022-10-16T07:51:12;6.07;;;2.03;;
42334;SDS011;27986;42.700;24.178;2022-10-16T07:53:39;2.72;;;1.30;;
42334;SDS011;27986;42.700;24.178;2022-10-16T07:56:05;5.18;;;1.25;;
42334;SDS011;27986;42.700;24.178;2022-10-16T07:58:33;3.50;;;1.63;;
42334;SDS011;27986;42.700;24.178;2022-10-16T08:01:05;10.77;;;1.85;;
42334;SDS011;27986;42.700;24.178;2022-10-16T08:03:32;2.70;;;1.15;;
42334;SDS011;27986;42.700;24.178;2022-10-16T08:05:58;2.92;;;1.33;;
42334;SDS011;27986;42.700;24.178;2022-10-16T08:08:24;4.05;;;1.98;;
42334;SDS011;27986;42.700;24.178;2022-10-16T08:10:49;4.38;;;2.10;;
42334;SDS011;27986;42.700;24.178;2022-10-16T08:13:15;4.15;;;1.67;;
42334;SDS011;27986;42.700;24.178;2022-10-16T08:15:41;3.15;;;1.63;;
42334;SDS011;27986;42.700;24.178;2022-10-16T08:18:08;6.72;;;2.60;;
42334;SDS011;27986;42.700;24.178;2022-10-16T08:20:35;2.97;;;1.70;;
42334;SDS011;27986;42.700;24.178;2022-10-16T08:23:00;4.22;;;2.15;;
42334;SDS011;27986;42.700;24.178;2022-10-16T08:25:26;2.53;;;1.42;;
42334;SDS011;27986;42.700;24.178;2022-10-16T08:27:52;4.70;;;2.15;;
42334;SDS011;27986;42.700;24.178;2022-10-16T08:30:18;4.18;;;2.15;;
42334;SDS011;27986;42.700;24.178;2022-10-16T08:32:44;2.80;;;1.60;;
42334;SDS011;27986;42.700;24.178;2022-10-16T08:35:10;5.35;;;2.80;;
42334;SDS011;27986;42.700;24.178;2022-10-16T08:37:36;3.42;;;1.83;;
42334;SDS011;27986;42.700;24.178;2022-10-16T08:40:02;5.30;;;2.78;;
42334;SDS011;27986;42.700;24.178;2022-10-16T08:50:36;3.00;;;1.48;;
42334;SDS011;27986;42.700;24.178;2022-10-16T08:53:03;3.58;;;1.90;;
42334;SDS011;27986;42.700;24.178;2022-10-16T08:58:11;6.57;;;2.17;;
42334;SDS011;27986;42.700;24.178;2022-10-16T09:00:39;5.97;;;1.52;;
42334;SDS011;27986;42.700;24.178;2022-10-16T09:03:10;4.43;;;1.58;;
42334;SDS011;27986;42.700;24.178;2022-10-16T09:08:42;4.82;;;1.90;;
42334;SDS011;27986;42.700;24.178;2022-10-16T09:17:27;4.70;;;1.95;;
42334;SDS011;27986;42.700;24.178;2022-10-16T09:19:56;2.45;;;1.35;;
42334;SDS011;27986;42.700;24.178;2022-10-16T09:22:45;8.05;;;2.30;;
42334;SDS011;27986;42.700;24.178;2022-10-16T09:25:12;3.33;;;1.75;;
42334;SDS011;27986;42.700;24.178;2022-10-16T09:27:40;2.97;;;1.48;;
42334;SDS011;27986;42.700;24.178;2022-10-16T09:30:11;4.93;;;1.40;;
42334;SDS011;27986;42.700;24.178;2022-10-16T09:32:41;9.27;;;1.88;;
42334;SDS011;27986;42.700;24.178;2022-10-16T09:35:43;4.05;;;1.50;;
42334;SDS011;27986;42.700;24.178;2022-10-16T09:38:05;2.28;;;1.05;;
42334;SDS011;27986;42.700;24.178;2022-10-16T09:40:35;3.45;;;1.10;;
42334;SDS011;27986;42.700;24.178;2022-10-16T09:45:43;6.10;;;1.52;;
42334;SDS011;27986;42.700;24.178;2022-10-16T09:48:21;3.90;;;1.92;;
42334;SDS011;27986;42.700;24.178;2022-10-16T09:51:00;4.95;;;1.38;;
42334;SDS011;27986;42.700;24.178;2022-10-16T09:53:43;3.85;;;1.52;;
42334;SDS011;27986;42.700;24.178;2022-10-16T09:56:11;5.38;;;1.63;;
42334;SDS011;27986;42.700;24.178;2022-10-16T09:58:50;3.33;;;1.80;;
42334;SDS011;27986;42.700;24.178;2022-10-16T10:01:21;3.78;;;1.60;;
42334;SDS011;27986;42.700;24.178;2022-10-16T10:03:50;2.28;;;1.08;;
42334;SDS011;27986;42.700;24.178;2022-10-16T10:06:25;5.63;;;1.80;;
42334;SDS011;27986;42.700;24.178;2022-10-16T10:09:04;4.38;;;1.20;;
42334;SDS011;27986;42.700;24.178;2022-10-16T10:11:50;3.72;;;1.50;;
42334;SDS011;27986;42.700;24.178;2022-10-16T10:14:25;2.45;;;1.23;;
42334;SDS011;27986;42.700;24.178;2022-10-16T10:19:47;5.68;;;1.33;;
42334;SDS011;27986;42.700;24.178;2022-10-16T10:25:22;2.72;;;1.42;;
42334;SDS011;27986;42.700;24.178;2022-10-16T10:28:10;3.05;;;1.27;;
42334;SDS011;27986;42.700;24.178;2022-10-16T10:38:38;3.13;;;1.70;;
42334;SDS011;27986;42.700;24.178;2022-10-16T10:44:04;2.90;;;1.50;;
42334;SDS011;27986;42.700;24.178;2022-10-16T10:54:49;4.65;;;1.05;;
42334;SDS011;27986;42.700;24.178;2022-10-16T10:57:33;2.45;;;1.33;;
42334;SDS011;27986;42.700;24.178;2022-10-16T11:00:54;1.98;;;1.20;;
42334;SDS011;27986;42.700;24.178;2022-10-16T11:06:07;2.05;;;1.20;;
42334;SDS011;27986;42.700;24.178;2022-10-16T11:08:53;2.55;;;1.42;;
42334;SDS011;27986;42.700;24.178;2022-10-16T11:11:35;2.70;;;1.38;;
42334;SDS011;27986;42.700;24.178;2022-10-16T11:14:11;3.42;;;1.45;;
42334;SDS011;27986;42.700;24.178;2022-10-16T11:16:58;4.25;;;1.10;;
42334;SDS011;27986;42.700;24.178;2022-10-16T11:24:35;4.07;;;1.45;;
42334;SDS011;27986;42.700;24.178;2022-10-16T11:27:09;4.65;;;1.10;;
42334;SDS011;27986;42.700;24.178;2022-10-16T11:29:56;2.80;;;1.10;;
42334;SDS011;27986;42.700;24.178;2022-10-16T11:32:32;1.90;;;1.05;;
42334;SDS011;27986;42.700;24.178;2022-10-16T11:35:02;4.70;;;1.50;;
42334;SDS011;27986;42.700;24.178;2022-10-16T11:37:42;4.25;;;2.47;;
42334;SDS011;27986;42.700;24.178;2022-10-16T11:40:22;2.70;;;1.17;;
42334;SDS011;27986;42.700;24.178;2022-10-16T11:43:15;2.42;;;1.02;;
42334;SDS011;27986;42.700;24.178;2022-10-16T11:45:57;10.60;;;1.30;;
42334;SDS011;27986;42.700;24.178;2022-10-16T11:48:41;3.15;;;1.55;;
42334;SDS011;27986;42.700;24.178;2022-10-16T11:56:46;3.78;;;1.17;;
42334;SDS011;27986;42.700;24.178;2022-10-16T12:01:52;7.25;;;2.15;;
42334;SDS011;27986;42.700;24.178;2022-10-16T12:04:33;6.05;;;2.08;;
42334;SDS011;27986;42.700;24.178;2022-10-16T12:07:21;2.60;;;1.17;;
42334;SDS011;27986;42.700;24.178;2022-10-16T12:09:49;3.50;;;1.10;;
42334;SDS011;27986;42.700;24.178;2022-10-16T12:12:36;1.98;;;1.10;;
42334;SDS011;27986;42.700;24.178;2022-10-16T12:17:50;2.67;;;1.40;;
42334;SDS011;27986;42.700;24.178;2022-10-16T12:22:48;3.97;;;1.65;;
42334;SDS011;27986;42.700;24.178;2022-10-16T12:27:57;12.70;;;1.92;;
42334;SDS011;27986;42.700;24.178;2022-10-16T12:30:43;1.92;;;0.90;;
42334;SDS011;27986;42.700;24.178;2022-10-16T12:33:28;2.83;;;1.20;;
42334;SDS011;27986;42.700;24.178;2022-10-16T12:35:54;2.47;;;1.08;;
42334;SDS011;27986;42.700;24.178;2022-10-16T12:38:29;3.05;;;0.93;;
42334;SDS011;27986;42.700;24.178;2022-10-16T12:41:10;2.92;;;1.08;;
42334;SDS011;27986;42.700;24.178;2022-10-16T12:43:45;1.58;;;0.75;;
42334;SDS011;27986;42.700;24.178;2022-10-16T12:48:38;2.05;;;1.00;;
42334;SDS011;27986;42.700;24.178;2022-10-16T12:51:12;2.50;;;0.85;;
42334;SDS011;27986;42.700;24.178;2022-10-16T12:53:58;1.70;;;0.80;;
42334;SDS011;27986;42.700;24.178;2022-10-16T13:01:46;1.98;;;1.15;;
42334;SDS011;27986;42.700;24.178;2022-10-16T13:04:29;1.80;;;0.95;;
42334;SDS011;27986;42.700;24.178;2022-10-16T13:09:55;1.92;;;1.05;;
42334;SDS011;27986;42.700;24.178;2022-10-16T13:15:41;5.05;;;1.17;;
42334;SDS011;27986;42.700;24.178;2022-10-16T13:21:07;1.70;;;0.88;;
42334;SDS011;27986;42.700;24.178;2022-10-16T13:23:51;2.55;;;1.10;;
42334;SDS011;27986;42.700;24.178;2022-10-16T13:29:13;3.17;;;1.00;;
42334;SDS011;27986;42.700;24.178;2022-10-16T13:31:39;2.55;;;1.15;;
42334;SDS011;27986;42.700;24.178;2022-10-16T13:34:05;2.30;;;1.17;;
42334;SDS011;27986;42.700;24.178;2022-10-16T13:36:43;3.40;;;1.40;;
42334;SDS011;27986;42.700;24.178;2022-10-16T13:39:15;9.25;;;1.27;;
42334;SDS011;27986;42.700;24.178;2022-10-16T13:41:57;2.03;;;1.08;;
42334;SDS011;27986;42.700;24.178;2022-10-16T13:44:23;1.60;;;1.00;;
42334;SDS011;27986;42.700;24.178;2022-10-16T13:46:57;3.95;;;1.10;;
42334;SDS011;27986;42.700;24.178;2022-10-16T13:49:27;2.28;;;1.00;;
42334;SDS011;27986;42.700;24.178;2022-10-16T13:51:56;2.67;;;1.15;;
42334;SDS011;27986;42.700;24.178;2022-10-16T13:54:23;5.82;;;1.30;;
42334;SDS011;27986;42.700;24.178;2022-10-16T13:56:50;4.53;;;1.15;;
42334;SDS011;27986;42.700;24.178;2022-10-16T13:59:26;2.22;;;1.33;;
42334;SDS011;27986;42.700;24.178;2022-10-16T14:01:58;2.05;;;0.88;;
42334;SDS011;27986;42.700;24.178;2022-10-16T14:04:25;1.38;;;0.80;;
42334;SDS011;27986;42.700;24.178;2022-10-16T14:06:56;2.33;;;1.08;;
42334;SDS011;27986;42.700;24.178;2022-10-16T14:09:26;2.42;;;0.88;;
42334;SDS011;27986;42.700;24.178;2022-10-16T14:14:41;2.22;;;1.20;;
42334;SDS011;27986;42.700;24.178;2022-10-16T14:17:15;2.00;;;0.98;;
42334;SDS011;27986;42.700;24.178;2022-10-16T14:19:47;3.25;;;1.55;;
42334;SDS011;27986;42.700;24.178;2022-10-16T14:24:55;1.60;;;0.77;;
42334;SDS011;27986;42.700;24.178;2022-10-16T14:27:28;1.80;;;1.13;;
42334;SDS011;27986;42.700;24.178;2022-10-16T14:32:52;4.63;;;1.83;;
42334;SDS011;27986;42.700;24.178;2022-10-16T14:35:36;2.80;;;0.77;;
42334;SDS011;27986;42.700;24.178;2022-10-16T14:38:04;2.65;;;1.10;;
42334;SDS011;27986;42.700;24.178;2022-10-16T14:40:32;5.50;;;1.52;;
42334;SDS011;27986;42.700;24.178;2022-10-16T14:43:00;3.00;;;1.27;;
42334;SDS011;27986;42.700;24.178;2022-10-16T14:45:28;3.20;;;1.23;;
42334;SDS011;27986;42.700;24.178;2022-10-16T14:47:57;5.38;;;1.70;;
42334;SDS011;27986;42.700;24.178;2022-10-16T14:50:26;6.32;;;2.20;;
42334;SDS011;27986;42.700;24.178;2022-10-16T14:52:51;3.47;;;1.33;;
42334;SDS011;27986;42.700;24.178;2022-10-16T14:55:17;2.65;;;1.52;;
42334;SDS011;27986;42.700;24.178;2022-10-16T14:57:43;5.95;;;1.90;;
42334;SDS011;27986;42.700;24.178;2022-10-16T15:00:22;4.55;;;1.90;;
42334;SDS011;27986;42.700;24.178;2022-10-16T15:02:49;3.00;;;1.10;;
42334;SDS011;27986;42.700;24.178;2022-10-16T15:07:46;2.47;;;1.15;;
42334;SDS011;27986;42.700;24.178;2022-10-16T15:10:13;2.75;;;1.33;;
42334;SDS011;27986;42.700;24.178;2022-10-16T15:12:39;4.05;;;1.42;;
42334;SDS011;27986;42.700;24.178;2022-10-16T15:15:15;2.13;;;1.10;;
42334;SDS011;27986;42.700;24.178;2022-10-16T15:17:45;3.72;;;1.77;;
42334;SDS011;27986;42.700;24.178;2022-10-16T15:20:10;3.75;;;1.65;;
42334;SDS011;27986;42.700;24.178;2022-10-16T15:22:36;5.38;;;2.63;;
42334;SDS011;27986;42.700;24.178;2022-10-16T15:25:01;3.45;;;1.45;;
42334;SDS011;27986;42.700;24.178;2022-10-16T15:27:27;3.65;;;1.67;;
42334;SDS011;27986;42.700;24.178;2022-10-16T15:29:53;3.22;;;1.40;;
42334;SDS011;27986;42.700;24.178;2022-10-16T15:32:18;3.97;;;1.38;;
42334;SDS011;27986;42.700;24.178;2022-10-16T15:34:43;4.97;;;1.45;;
42334;SDS011;27986;42.700;24.178;2022-10-16T15:37:09;2.22;;;0.98;;
42334;SDS011;27986;42.700;24.178;2022-10-16T15:39:36;5.53;;;1.40;;
42334;SDS011;27986;42.700;24.178;2022-10-16T15:42:02;3.22;;;1.25;;
42334;SDS011;27986;42.700;24.178;2022-10-16T15:44:28;3.20;;;1.08;;
42334;SDS011;27986;42.700;24.178;2022-10-16T15:46:55;3.30;;;1.60;;
42334;SDS011;27986;42.700;24.178;2022-10-16T15:49:21;5.80;;;1.70;;
42334;SDS011;27986;42.700;24.178;2022-10-16T15:51:47;3.70;;;1.23;;
42334;SDS011;27986;42.700;24.178;2022-10-16T15:54:12;3.55;;;1.65;;
42334;SDS011;27986;42.700;24.178;2022-10-16T15:56:38;7.22;;;1.95;;
42334;SDS011;27986;42.700;24.178;2022-10-16T15:59:04;8.15;;;1.88;;
42334;SDS011;27986;42.700;24.178;2022-10-16T16:01:33;4.93;;;2.10;;
42334;SDS011;27986;42.700;24.178;2022-10-16T16:03:59;3.78;;;1.33;;
42334;SDS011;27986;42.700;24.178;2022-10-16T16:06:25;2.05;;;1.23;;
42334;SDS011;27986;42.700;24.178;2022-10-16T16:08:51;3.60;;;1.88;;
42334;SDS011;27986;42.700;24.178;2022-10-16T16:11:17;8.30;;;4.07;;
42334;SDS011;27986;42.700;24.178;2022-10-16T16:13:43;9.40;;;3.33;;
42334;SDS011;27986;42.700;24.178;2022-10-16T16:16:10;26.98;;;9.70;;
42334;SDS011;27986;42.700;24.178;2022-10-16T16:18:37;42.15;;;16.15;;
42334;SDS011;27986;42.700;24.178;2022-10-16T16:21:03;32.15;;;15.38;;
42334;SDS011;27986;42.700;24.178;2022-10-16T16:23:29;25.27;;;11.18;;
42334;SDS011;27986;42.700;24.178;2022-10-16T16:26:05;14.68;;;6.03;;
42334;SDS011;27986;42.700;24.178;2022-10-16T16:28:48;17.20;;;6.47;;
42334;SDS011;27986;42.700;24.178;2022-10-16T16:31:14;17.77;;;5.50;;
42334;SDS011;27986;42.700;24.178;2022-10-16T16:33:39;18.60;;;7.68;;
42334;SDS011;27986;42.700;24.178;2022-10-16T16:36:05;16.33;;;7.93;;
42334;SDS011;27986;42.700;24.178;2022-10-16T16:38:31;16.85;;;6.93;;
42334;SDS011;27986;42.700;24.178;2022-10-16T16:40:57;21.98;;;8.57;;
42334;SDS011;27986;42.700;24.178;2022-10-16T16:43:26;18.92;;;9.48;;
42334;SDS011;27986;42.700;24.178;2022-10-16T16:45:52;22.02;;;10.50;;